Piedade, Brazil
Current Conditions -  °F | °C
As of 10:00 AM on Monday 24 Nov 2014 (Local Time) from SBBQ Reporting Station
Drizzle Drizzle  
Wind Chill: 66°   Ceiling: 400
Heat Index: 66°   Visibility: 3mi
Dew Point: 64°   Wind: 5mph
Humidity: 94%   Direction: 110°ESE
Pressure: 30.21"   Gusts: NA
Location:  21.47°S, 44.2°W
Report Text: SBBQ 241200Z 11004KT 5000 -DZ BKN004 OVC012 19/18 Q1023
Loading
Personal Weather Stations






























Interactive Weather Map New forecast layout! Learn more

10-Day Weather Forecast

Advertisements
Track Severe Weather on mobile